^^
Saratoga-Weather Station Historical Data
Daily Summary for March 17, 2021 Units:  Both    English   Metric
Daily Weekly Monthly Yearly Custom
  High: Low: Average:
Temperature: 50.9 °F /  10.5 °C 42.1 °F /  5.6 °C 47.5 °F /  8.6 °C
Dew Point: 46.9 °F /  8.3 °C 39.4 °F /  4.1 °C 44.2 °F /  6.8 °C
Humidity: 92% 80% 89%
Wind Speed: 9mph /  14.5km/h - 1.8mph /  2.9km/h
Wind Gust: 13mph /  20.9km/h - -
Wind- - WSW
Pressure: 30.1 in /  1019.6 hPa 30 in /  1016.3 hPa -
Precipitation: 0.01 in /  0.2 mm    
Historical Graphs
 
 
Tabular Data for March 17, 2021
Time Temperature Dew Point Pressure Wind Wind Speed Wind Gust Humidity Rainfall Rate (Hourly) solar
00:00 46.9 °F /  8.3 °C 44.8 °F /  7.1 °C 30in /  1016.3hPa NW 4mph /  6.4km/h 10mph /  16.1km/h 92% 0in /  0.0mm 0 W/m2
00:05 46.8 °F /  8.2 °C 44.6 °F /  7 °C 30in /  1016.3hPa SW 6mph /  9.7km/h 11mph /  17.7km/h 92% 0in /  0.0mm 0 W/m2
00:10 46.8 °F /  8.2 °C 44.6 °F /  7 °C 30in /  1016.3hPa West 2.9mph /  4.7km/h 10mph /  16.1km/h 92% 0in /  0.0mm 0 W/m2
00:15 46.8 °F /  8.2 °C 44.6 °F /  7 °C 30in /  1016.3hPa WNW 4.9mph /  7.9km/h 6mph /  9.7km/h 92% 0in /  0.0mm 0 W/m2
00:20 46.8 °F /  8.2 °C 44.6 °F /  7 °C 30in /  1016.6hPa SW 2.9mph /  4.7km/h 7mph /  11.3km/h 92% 0in /  0.0mm 0 W/m2
00:25 46.6 °F /  8.1 °C 44.4 °F /  6.9 °C 30in /  1016.6hPa WNW 4mph /  6.4km/h 6mph /  9.7km/h 92% 0in /  0.0mm 0 W/m2
00:30 46.6 °F /  8.1 °C 44.4 °F /  6.9 °C 30in /  1016.6hPa West 0.9mph /  1.4km/h 9mph /  14.5km/h 92% 0in /  0.0mm 0 W/m2
00:35 46.6 °F /  8.1 °C 44.4 °F /  6.9 °C 30in /  1016.6hPa Calm   4mph /  6.4km/h 92% 0in /  0.0mm 0 W/m2
00:40 46.6 °F /  8.1 °C 44.4 °F /  6.9 °C 30in /  1016.6hPa Calm   9mph /  14.5km/h 92% 0in /  0.0mm 0 W/m2
00:45 46.6 °F /  8.1 °C 44.4 °F /  6.9 °C 30in /  1016.6hPa West 2mph /  3.2km/h 2mph /  3.2km/h 92% 0in /  0.0mm 0 W/m2
00:50 46.4 °F /  8 °C 44.2 °F /  6.8 °C 30in /  1016.9hPa WNW 4mph /  6.4km/h 7mph /  11.3km/h 92% 0in /  0.0mm 0 W/m2
00:55 46.6 °F /  8.1 °C 44.4 °F /  6.9 °C 30in /  1016.9hPa West 2.9mph /  4.7km/h 8mph /  12.9km/h 92% 0in /  0.0mm 0 W/m2
01:00 46.6 °F /  8.1 °C 44.4 °F /  6.9 °C 30in /  1016.9hPa West 2mph /  3.2km/h 8mph /  12.9km/h 92% 0in /  0.0mm 0 W/m2
01:05 46.4 °F /  8 °C 44.2 °F /  6.8 °C 30in /  1016.9hPa WSW 0.9mph /  1.4km/h 3mph /  4.8km/h 92% 0in /  0.0mm 0 W/m2
01:10 46.4 °F /  8 °C 44.2 °F /  6.8 °C 30in /  1016.9hPa NW 2mph /  3.2km/h 10mph /  16.1km/h 92% 0in /  0.0mm 0 W/m2
01:15 46.2 °F /  7.9 °C 44.1 °F /  6.7 °C 30in /  1016.9hPa Calm   2mph /  3.2km/h 92% 0in /  0.0mm 0 W/m2
01:20 46 °F /  7.8 °C 43.9 °F /  6.6 °C 30in /  1016.9hPa WNW 2mph /  3.2km/h 10mph /  16.1km/h 92% 0in /  0.0mm 0 W/m2
01:25 46 °F /  7.8 °C 43.9 °F /  6.6 °C 30in /  1016.9hPa Calm   5mph /  8km/h 92% 0in /  0.0mm 0 W/m2
01:30 45.9 °F /  7.7 °C 43.7 °F /  6.5 °C 30in /  1016.9hPa SW 2mph /  3.2km/h 3mph /  4.8km/h 92% 0in /  0.0mm 0 W/m2
01:35 45.9 °F /  7.7 °C 43.7 °F /  6.5 °C 30in /  1016.9hPa NW 6.9mph /  11.1km/h 7mph /  11.3km/h 92% 0in /  0.0mm 0 W/m2
01:40 45.9 °F /  7.7 °C 43.7 °F /  6.5 °C 30in /  1016.9hPa WNW 2.9mph /  4.7km/h 6mph /  9.7km/h 92% 0in /  0.0mm 0 W/m2
01:45 45.9 °F /  7.7 °C 43.7 °F /  6.5 °C 30in /  1017.3hPa WNW 8.1mph /  13km/h 8mph /  12.9km/h 92% 0in /  0.0mm 0 W/m2
01:50 45.7 °F /  7.6 °C 43.5 °F /  6.4 °C 30in /  1017.3hPa SW 2.9mph /  4.7km/h 5mph /  8km/h 92% 0in /  0.0mm 0 W/m2
01:55 45.9 °F /  7.7 °C 43.7 °F /  6.5 °C 30in /  1017.3hPa WNW 2.9mph /  4.7km/h 4mph /  6.4km/h 92% 0in /  0.0mm 0 W/m2
02:00 45.9 °F /  7.7 °C 43.7 °F /  6.5 °C 30in /  1017.3hPa North 2mph /  3.2km/h 2mph /  3.2km/h 92% 0in /  0.0mm 0 W/m2
02:05 45.7 °F /  7.6 °C 43.5 °F /  6.4 °C 30in /  1017.3hPa NW 2mph /  3.2km/h 3mph /  4.8km/h 92% 0in /  0.0mm 0 W/m2
02:10 45.9 °F /  7.7 °C 43.7 °F /  6.5 °C 30.1in /  1017.6hPa SE 0.9mph /  1.4km/h 3mph /  4.8km/h 92% 0in /  0.0mm 0 W/m2
02:15 45.9 °F /  7.7 °C 43.7 °F /  6.5 °C 30.1in /  1017.6hPa West 0.9mph /  1.4km/h 3mph /  4.8km/h 92% 0in /  0.0mm 0 W/m2
02:20 45.9 °F /  7.7 °C 43.7 °F /  6.5 °C 30.1in /  1017.6hPa WSW 4mph /  6.4km/h 7mph /  11.3km/h 92% 0in /  0.0mm 0 W/m2
02:25 46 °F /  7.8 °C 43.9 °F /  6.6 °C 30.1in /  1017.6hPa Calm   4mph /  6.4km/h 92% 0in /  0.0mm 0 W/m2
02:30 46 °F /  7.8 °C 43.9 °F /  6.6 °C 30.1in /  1017.6hPa West 2mph /  3.2km/h 4mph /  6.4km/h 92% 0in /  0.0mm 0 W/m2
02:35 46 °F /  7.8 °C 43.9 °F /  6.6 °C 30.1in /  1018.0hPa WNW 2mph /  3.2km/h 4mph /  6.4km/h 92% 0in /  0.0mm 0 W/m2
02:40 46 °F /  7.8 °C 43.9 °F /  6.6 °C 30.1in /  1018.0hPa West 2.9mph /  4.7km/h 7mph /  11.3km/h 92% 0in /  0.0mm 0 W/m2
02:45 46.2 °F /  7.9 °C 44.1 °F /  6.7 °C 30.1in /  1018.0hPa WNW 4mph /  6.4km/h 7mph /  11.3km/h 92% 0in /  0.0mm 0 W/m2
02:50 46.2 °F /  7.9 °C 44.1 °F /  6.7 °C 30.1in /  1018.0hPa NW 2mph /  3.2km/h 5mph /  8km/h 92% 0in /  0.0mm 0 W/m2
02:56 46.2 °F /  7.9 °C 44.1 °F /  6.7 °C 30.1in /  1018.0hPa West 2mph /  3.2km/h 8mph /  12.9km/h 92% 0in /  0.0mm 0 W/m2
03:01 46.2 °F /  7.9 °C 44.1 °F /  6.7 °C 30.1in /  1018.0hPa WNW 0.9mph /  1.4km/h 2mph /  3.2km/h 92% 0in /  0.0mm 0 W/m2
03:06 46.2 °F /  7.9 °C 44.1 °F /  6.7 °C 30.1in /  1018.0hPa WNW 2.9mph /  4.7km/h 7mph /  11.3km/h 92% 0in /  0.0mm 0 W/m2
03:11 46.4 °F /  8 °C 44.2 °F /  6.8 °C 30.1in /  1018.0hPa West 2mph /  3.2km/h 5mph /  8km/h 92% 0in /  0.0mm 0 W/m2
03:16 46.2 °F /  7.9 °C 44.1 °F /  6.7 °C 30.1in /  1018.0hPa NW 2.9mph /  4.7km/h 5mph /  8km/h 92% 0in /  0.0mm 0 W/m2
03:21 46.4 °F /  8 °C 44.2 °F /  6.8 °C 30.1in /  1018.0hPa WSW 2mph /  3.2km/h 6mph /  9.7km/h 92% 0in /  0.0mm 0 W/m2
03:26 46.4 °F /  8 °C 44.2 °F /  6.8 °C 30.1in /  1018.3hPa NW 0.9mph /  1.4km/h 4mph /  6.4km/h 92% 0in /  0.0mm 0 W/m2
03:31 46.2 °F /  7.9 °C 44.1 °F /  6.7 °C 30.1in /  1018.0hPa WNW 2mph /  3.2km/h 10mph /  16.1km/h 92% 0in /  0.0mm 0 W/m2
03:36 46.2 °F /  7.9 °C 44.1 °F /  6.7 °C 30.1in /  1018.0hPa WNW 2mph /  3.2km/h 4mph /  6.4km/h 92% 0in /  0.0mm 0 W/m2
03:41 46.2 °F /  7.9 °C 44.1 °F /  6.7 °C 30.1in /  1018.3hPa NE 0.9mph /  1.4km/h 8mph /  12.9km/h 92% 0in /  0.0mm 0 W/m2
03:46 46.2 °F /  7.9 °C 44.1 °F /  6.7 °C 30.1in /  1018.3hPa WNW 2.9mph /  4.7km/h 5mph /  8km/h 92% 0in /  0.0mm 0 W/m2
03:51 46.2 °F /  7.9 °C 44.1 °F /  6.7 °C 30.1in /  1018.3hPa NW 0.9mph /  1.4km/h 4mph /  6.4km/h 92% 0in /  0.0mm 0 W/m2
03:56 46.2 °F /  7.9 °C 44.1 °F /  6.7 °C 30.1in /  1018.3hPa NW 2.9mph /  4.7km/h 5mph /  8km/h 92% 0in /  0.0mm 0 W/m2
04:01 46 °F /  7.8 °C 43.9 °F /  6.6 °C 30.1in /  1018.3hPa Calm   2mph /  3.2km/h 92% 0in /  0.0mm 0 W/m2
04:06 46 °F /  7.8 °C 43.9 °F /  6.6 °C 30.1in /  1018.3hPa SW 0.9mph /  1.4km/h 8mph /  12.9km/h 92% 0in /  0.0mm 0 W/m2
04:11 46 °F /  7.8 °C 43.9 °F /  6.6 °C 30.1in /  1018.3hPa West 0.9mph /  1.4km/h 4mph /  6.4km/h 92% 0in /  0.0mm 0 W/m2
04:16 46 °F /  7.8 °C 43.9 °F /  6.6 °C 30.1in /  1018.3hPa WNW 2mph /  3.2km/h 6mph /  9.7km/h 92% 0in /  0.0mm 0 W/m2
04:21 45.9 °F /  7.7 °C 43.7 °F /  6.5 °C 30.1in /  1018.3hPa WNW 4mph /  6.4km/h 6mph /  9.7km/h 92% 0in /  0.0mm 0 W/m2
04:26 45.9 °F /  7.7 °C 43.7 °F /  6.5 °C 30.1in /  1018.0hPa West 6.9mph /  11.1km/h 7mph /  11.3km/h 92% 0in /  0.0mm 0 W/m2
04:31 45.9 °F /  7.7 °C 43.7 °F /  6.5 °C 30.1in /  1018.3hPa Calm   5mph /  8km/h 92% 0in /  0.0mm 0 W/m2
04:36 45.9 °F /  7.7 °C 43.7 °F /  6.5 °C 30.1in /  1018.3hPa WSW 2.9mph /  4.7km/h 6mph /  9.7km/h 92% 0in /  0.0mm 0 W/m2
04:41 45.9 °F /  7.7 °C 43.7 °F /  6.5 °C 30.1in /  1018.3hPa West 2.9mph /  4.7km/h 8mph /  12.9km/h 92% 0in /  0.0mm 0 W/m2
04:46 45.9 °F /  7.7 °C 43.7 °F /  6.5 °C 30.1in /  1018.3hPa SSW 4.9mph /  7.9km/h 6mph /  9.7km/h 92% 0in /  0.0mm 0 W/m2
04:51 45.9 °F /  7.7 °C 43.7 °F /  6.5 °C 30.1in /  1018.3hPa WNW 0.9mph /  1.4km/h 8mph /  12.9km/h 92% 0in /  0.0mm 0 W/m2
04:56 45.9 °F /  7.7 °C 43.7 °F /  6.5 °C 30.1in /  1018.3hPa SSW 2.9mph /  4.7km/h 5mph /  8km/h 92% 0in /  0.0mm 0 W/m2
05:01 45.7 °F /  7.6 °C 43.5 °F /  6.4 °C 30.1in /  1018.3hPa Calm   8mph /  12.9km/h 92% 0in /  0.0mm 0 W/m2
05:06 45.7 °F /  7.6 °C 43.5 °F /  6.4 °C 30.1in /  1018.6hPa West 0.9mph /  1.4km/h 4mph /  6.4km/h 92% 0in /  0.0mm 0 W/m2
05:11 45.7 °F /  7.6 °C 43.5 °F /  6.4 °C 30.1in /  1018.6hPa West 0.9mph /  1.4km/h 3mph /  4.8km/h 92% 0in /  0.0mm 0 W/m2
05:16 45.9 °F /  7.7 °C 43.7 °F /  6.5 °C 30.1in /  1018.6hPa WSW 0.9mph /  1.4km/h 4mph /  6.4km/h 92% 0in /  0.0mm 0 W/m2
05:21 45.7 °F /  7.6 °C 43.5 °F /  6.4 °C 30.1in /  1018.6hPa WNW 2.9mph /  4.7km/h 4mph /  6.4km/h 92% 0in /  0.0mm 0 W/m2
05:26 45.7 °F /  7.6 °C 43.5 °F /  6.4 °C 30.1in /  1018.6hPa West 6mph /  9.7km/h 11mph /  17.7km/h 92% 0in /  0.0mm 0 W/m2
05:31 45.7 °F /  7.6 °C 43.5 °F /  6.4 °C 30.1in /  1018.6hPa WNW 2.9mph /  4.7km/h 8mph /  12.9km/h 92% 0in /  0.0mm 0 W/m2
05:36 45.7 °F /  7.6 °C 43.5 °F /  6.4 °C 30.1in /  1018.6hPa West 4mph /  6.4km/h 11mph /  17.7km/h 92% 0in /  0.0mm 0 W/m2
05:41 45.7 °F /  7.6 °C 43.2 °F /  6.2 °C 30.1in /  1018.6hPa North 0.9mph /  1.4km/h 4mph /  6.4km/h 91% 0in /  0.0mm 0 W/m2
05:47 45.5 °F /  7.5 °C 43 °F /  6.1 °C 30.1in /  1018.6hPa West 6.9mph /  11.1km/h 13mph /  20.9km/h 91% 0in /  0.0mm 0 W/m2
05:52 45.7 °F /  7.6 °C 43.5 °F /  6.4 °C 30.1in /  1018.6hPa WNW 4mph /  6.4km/h 6mph /  9.7km/h 92% 0in /  0.0mm 0 W/m2
05:57 45.7 °F /  7.6 °C 43.2 °F /  6.2 °C 30.1in /  1018.6hPa WNW 2.9mph /  4.7km/h 13mph /  20.9km/h 91% 0in /  0.0mm 0 W/m2
06:02 45.7 °F /  7.6 °C 43.5 °F /  6.4 °C 30.1in /  1018.6hPa West 6mph /  9.7km/h 6mph /  9.7km/h 92% 0in /  0.0mm 0 W/m2
06:07 45.7 °F /  7.6 °C 43.5 °F /  6.4 °C 30.1in /  1018.6hPa SW 2.9mph /  4.7km/h 8mph /  12.9km/h 92% 0in /  0.0mm 0 W/m2
06:12 45.7 °F /  7.6 °C 43.2 °F /  6.2 °C 30.1in /  1018.6hPa Calm   3mph /  4.8km/h 91% 0in /  0.0mm 0 W/m2
06:17 45.7 °F /  7.6 °C 43.2 °F /  6.2 °C 30.1in /  1018.6hPa WNW 2.9mph /  4.7km/h 3mph /  4.8km/h 91% 0in /  0.0mm 0 W/m2
06:22 45.7 °F /  7.6 °C 43.5 °F /  6.4 °C 30.1in /  1018.6hPa NW 4.9mph /  7.9km/h 7mph /  11.3km/h 92% 0in /  0.0mm 0 W/m2
06:27 45.7 °F /  7.6 °C 43.5 °F /  6.4 °C 30.1in /  1019.0hPa Calm   3mph /  4.8km/h 92% 0in /  0.0mm 0 W/m2
06:32 45.7 °F /  7.6 °C 43.2 °F /  6.2 °C 30.1in /  1019.0hPa NNE 0.9mph /  1.4km/h 4mph /  6.4km/h 91% 0in /  0.0mm 0 W/m2
06:37 45.7 °F /  7.6 °C 43.5 °F /  6.4 °C 30.1in /  1018.6hPa Calm   2mph /  3.2km/h 92% 0in /  0.0mm 0 W/m2
06:42 45.7 °F /  7.6 °C 43.5 °F /  6.4 °C 30.1in /  1019.0hPa South 2mph /  3.2km/h 4mph /  6.4km/h 92% 0in /  0.0mm 0 W/m2
06:47 45.7 °F /  7.6 °C 43.5 °F /  6.4 °C 30.1in /  1019.0hPa North 2.9mph /  4.7km/h 7mph /  11.3km/h 92% 0in /  0.0mm 0 W/m2
06:52 45.7 °F /  7.6 °C 43.5 °F /  6.4 °C 30.1in /  1019.0hPa West 2.9mph /  4.7km/h 3mph /  4.8km/h 92% 0in /  0.0mm 0 W/m2
06:57 45.7 °F /  7.6 °C 43.5 °F /  6.4 °C 30.1in /  1019.0hPa SSW 2mph /  3.2km/h 7mph /  11.3km/h 92% 0in /  0.0mm 0 W/m2
07:02 45.7 °F /  7.6 °C 43.5 °F /  6.4 °C 30.1in /  1019.0hPa WNW 2.9mph /  4.7km/h 4mph /  6.4km/h 92% 0in /  0.0mm 0 W/m2
07:07 45.7 °F /  7.6 °C 43.5 °F /  6.4 °C 30.1in /  1019.0hPa WNW 0.9mph /  1.4km/h 3mph /  4.8km/h 92% 0in /  0.0mm 0 W/m2
07:12 45.7 °F /  7.6 °C 43.5 °F /  6.4 °C 30.1in /  1019.0hPa North 4mph /  6.4km/h 6mph /  9.7km/h 92% 0in /  0.0mm 0 W/m2
07:17 45.5 °F /  7.5 °C 43.3 °F /  6.3 °C 30.1in /  1019.0hPa West 2mph /  3.2km/h 6mph /  9.7km/h 92% 0in /  0.0mm 0 W/m2
07:22 45.5 °F /  7.5 °C 43.3 °F /  6.3 °C 30.1in /  1019.0hPa ENE 0.9mph /  1.4km/h 4mph /  6.4km/h 92% 0in /  0.0mm 0 W/m2
07:27 45.5 °F /  7.5 °C 43.3 °F /  6.3 °C 30.1in /  1019.0hPa West 0.9mph /  1.4km/h 3mph /  4.8km/h 92% 0in /  0.0mm 0 W/m2
07:32 45.5 °F /  7.5 °C 43.3 °F /  6.3 °C 30.1in /  1019.0hPa Calm   2mph /  3.2km/h 92% 0in /  0.0mm 0 W/m2
07:37 45.3 °F /  7.4 °C 43.2 °F /  6.2 °C 30.1in /  1019.0hPa WNW 2mph /  3.2km/h 2mph /  3.2km/h 92% 0in /  0.0mm 0 W/m2
07:42 45.3 °F /  7.4 °C 43.2 °F /  6.2 °C 30.1in /  1019.0hPa NE 0.9mph /  1.4km/h 9mph /  14.5km/h 92% 0in /  0.0mm 0 W/m2
07:47 45.3 °F /  7.4 °C 43.2 °F /  6.2 °C 30.1in /  1019.0hPa Calm   2mph /  3.2km/h 92% 0in /  0.0mm 0 W/m2
07:52 45.3 °F /  7.4 °C 43.2 °F /  6.2 °C 30.1in /  1019.0hPa West 0.9mph /  1.4km/h 9mph /  14.5km/h 92% 0in /  0.0mm 0 W/m2
07:57 45.3 °F /  7.4 °C 43.2 °F /  6.2 °C 30.1in /  1019.0hPa Calm   4mph /  6.4km/h 92% 0in /  0.0mm 7 W/m2
08:02 45.5 °F /  7.5 °C 43.3 °F /  6.3 °C 30.1in /  1019.0hPa Calm   1mph /  1.6km/h 92% 0in /  0.0mm 7 W/m2
08:07 45.5 °F /  7.5 °C 43.3 °F /  6.3 °C 30.1in /  1019.3hPa ENE 2mph /  3.2km/h 3mph /  4.8km/h 92% 0in /  0.0mm 9 W/m2
08:12 45.7 °F /  7.6 °C 43.5 °F /  6.4 °C 30.1in /  1019.3hPa WNW 0.9mph /  1.4km/h 3mph /  4.8km/h 92% 0in /  0.0mm 12 W/m2
08:17 45.7 °F /  7.6 °C 43.5 °F /  6.4 °C 30.1in /  1019.3hPa WNW 2mph /  3.2km/h 2mph /  3.2km/h 92% 0in /  0.0mm 14 W/m2
08:22 45.7 °F /  7.6 °C 43.5 °F /  6.4 °C 30.1in /  1019.3hPa WSW 0.9mph /  1.4km/h 2mph /  3.2km/h 92% 0in /  0.0mm 14 W/m2
08:27 45.7 °F /  7.6 °C 43.5 °F /  6.4 °C 30.1in /  1019.3hPa NW 2.9mph /  4.7km/h 4mph /  6.4km/h 92% 0in /  0.0mm 18 W/m2
08:32 45.9 °F /  7.7 °C 43.7 °F /  6.5 °C 30.1in /  1019.3hPa NW 2mph /  3.2km/h 3mph /  4.8km/h 92% 0in /  0.0mm 23 W/m2
08:37 45.9 °F /  7.7 °C 43.7 °F /  6.5 °C 30.1in /  1019.3hPa Calm   2mph /  3.2km/h 92% 0in /  0.0mm 26 W/m2
08:42 45.9 °F /  7.7 °C 43.3 °F /  6.3 °C 30.1in /  1019.3hPa Calm   2mph /  3.2km/h 91% 0in /  0.0mm 26 W/m2
08:47 45.9 °F /  7.7 °C 43.3 °F /  6.3 °C 30.1in /  1019.6hPa Calm   1mph /  1.6km/h 91% 0in /  0.0mm 33 W/m2
08:52 46 °F /  7.8 °C 43.5 °F /  6.4 °C 30.1in /  1019.6hPa Calm   4mph /  6.4km/h 91% 0in /  0.0mm 32 W/m2
08:57 46 °F /  7.8 °C 43.5 °F /  6.4 °C 30.1in /  1019.3hPa Calm   4mph /  6.4km/h 91% 0in /  0.0mm 37 W/m2
09:02 46 °F /  7.8 °C 43.5 °F /  6.4 °C 30.1in /  1019.6hPa West 0.9mph /  1.4km/h 3mph /  4.8km/h 91% 0in /  0.0mm 49 W/m2
09:07 46 °F /  7.8 °C 43.5 °F /  6.4 °C 30.1in /  1019.6hPa Calm   4mph /  6.4km/h 91% 0in /  0.0mm 37 W/m2
09:12 46 °F /  7.8 °C 43.5 °F /  6.4 °C 30.1in /  1019.6hPa ENE 2.9mph /  4.7km/h 3mph /  4.8km/h 91% 0in /  0.0mm 25 W/m2
09:17 46 °F /  7.8 °C 43.5 °F /  6.4 °C 30.1in /  1019.6hPa Calm   4mph /  6.4km/h 91% 0in /  0.0mm 25 W/m2
09:22 46 °F /  7.8 °C 43.5 °F /  6.4 °C 30.1in /  1019.6hPa ESE 0.9mph /  1.4km/h 2mph /  3.2km/h 91% 0in /  0.0mm 54 W/m2
09:27 46 °F /  7.8 °C 43.5 °F /  6.4 °C 30.1in /  1019.6hPa Calm   4mph /  6.4km/h 91% 0in /  0.0mm 62 W/m2
09:32 46.2 °F /  7.9 °C 44.1 °F /  6.7 °C 30.1in /  1019.6hPa NW 2mph /  3.2km/h 7mph /  11.3km/h 92% 0in /  0.0mm 47 W/m2
09:37 46.2 °F /  7.9 °C 43.7 °F /  6.5 °C 30.1in /  1019.6hPa West 0.9mph /  1.4km/h 3mph /  4.8km/h 91% 0in /  0.0mm 53 W/m2
09:42 46.2 °F /  7.9 °C 43.7 °F /  6.5 °C 30.1in /  1019.6hPa WNW 0.9mph /  1.4km/h 7mph /  11.3km/h 91% 0in /  0.0mm 69 W/m2
09:47 46.2 °F /  7.9 °C 43.7 °F /  6.5 °C 30.1in /  1019.6hPa WNW 2mph /  3.2km/h 3mph /  4.8km/h 91% 0in /  0.0mm 72 W/m2
09:52 46.4 °F /  8 °C 43.9 °F /  6.6 °C 30.1in /  1019.6hPa WNW 2mph /  3.2km/h 3mph /  4.8km/h 91% 0in /  0.0mm 46 W/m2
09:57 46.4 °F /  8 °C 43.9 °F /  6.6 °C 30.1in /  1019.6hPa ESE 0.9mph /  1.4km/h 5mph /  8km/h 91% 0in /  0.0mm 83 W/m2
10:02 46.6 °F /  8.1 °C 44.1 °F /  6.7 °C 30.1in /  1019.6hPa NNW 0.9mph /  1.4km/h 3mph /  4.8km/h 91% 0in /  0.0mm 107 W/m2
10:07 46.6 °F /  8.1 °C 44.1 °F /  6.7 °C 30.1in /  1019.6hPa ESE 2mph /  3.2km/h 3mph /  4.8km/h 91% 0in /  0.0mm 74 W/m2
10:12 46.8 °F /  8.2 °C 44.2 °F /  6.8 °C 30.1in /  1019.6hPa East 0.9mph /  1.4km/h 2mph /  3.2km/h 91% 0in /  0.0mm 79 W/m2
10:17 46.8 °F /  8.2 °C 44.2 °F /  6.8 °C 30.1in /  1019.6hPa ENE 0.9mph /  1.4km/h 3mph /  4.8km/h 91% 0in /  0.0mm 72 W/m2
10:22 46.8 °F /  8.2 °C 44.1 °F /  6.7 °C 30.1in /  1019.6hPa East 2mph /  3.2km/h 4mph /  6.4km/h 90% 0in /  0.0mm 69 W/m2
10:27 46.9 °F /  8.3 °C 44.2 °F /  6.8 °C 30.1in /  1019.6hPa NNW 2.9mph /  4.7km/h 8mph /  12.9km/h 90% 0in /  0.0mm 86 W/m2
10:32 46.9 °F /  8.3 °C 44.2 °F /  6.8 °C 30.1in /  1019.6hPa NNE 2mph /  3.2km/h 5mph /  8km/h 90% 0in /  0.0mm 111 W/m2
10:37 47.1 °F /  8.4 °C 44.4 °F /  6.9 °C 30.1in /  1019.6hPa ESE 2.9mph /  4.7km/h 8mph /  12.9km/h 90% 0in /  0.0mm 121 W/m2
10:42 47.3 °F /  8.5 °C 44.6 °F /  7 °C 30.1in /  1019.6hPa NW 2mph /  3.2km/h 2mph /  3.2km/h 90% 0in /  0.0mm 151 W/m2
10:47 47.5 °F /  8.6 °C 44.8 °F /  7.1 °C 30.1in /  1019.6hPa SE 2mph /  3.2km/h 2mph /  3.2km/h 90% 0in /  0.0mm 179 W/m2
10:52 47.7 °F /  8.7 °C 44.6 °F /  7 °C 30.1in /  1019.6hPa NNW 2.9mph /  4.7km/h 3mph /  4.8km/h 89% 0in /  0.0mm 213 W/m2
10:57 47.8 °F /  8.8 °C 44.8 °F /  7.1 °C 30.1in /  1019.6hPa NNW 2mph /  3.2km/h 2mph /  3.2km/h 89% 0in /  0.0mm 248 W/m2
11:02 48.4 °F /  9.1 °C 45.3 °F /  7.4 °C 30.1in /  1019.6hPa NW 2mph /  3.2km/h 3mph /  4.8km/h 89% 0in /  0.0mm 345 W/m2
11:07 48.7 °F /  9.3 °C 45.7 °F /  7.6 °C 30.1in /  1019.6hPa North 0.9mph /  1.4km/h 3mph /  4.8km/h 89% 0in /  0.0mm 311 W/m2
11:12 49.1 °F /  9.5 °C 45.7 °F /  7.6 °C 30.1in /  1019.6hPa NW 4mph /  6.4km/h 4mph /  6.4km/h 88% 0in /  0.0mm 244 W/m2
11:17 49.5 °F /  9.7 °C 45.7 °F /  7.6 °C 30.1in /  1019.6hPa NW 2.9mph /  4.7km/h 7mph /  11.3km/h 87% 0in /  0.0mm 179 W/m2
11:22 49.5 °F /  9.7 °C 45.5 °F /  7.5 °C 30.1in /  1019.6hPa WSW 0.9mph /  1.4km/h 8mph /  12.9km/h 86% 0in /  0.0mm 272 W/m2
11:27 49.5 °F /  9.7 °C 45.5 °F /  7.5 °C 30.1in /  1019.6hPa NW 2mph /  3.2km/h 8mph /  12.9km/h 86% 0in /  0.0mm 149 W/m2
11:32 49.5 °F /  9.7 °C 45.5 °F /  7.5 °C 30.1in /  1019.6hPa SW 4.9mph /  7.9km/h 7mph /  11.3km/h 86% 0in /  0.0mm 309 W/m2
11:37 49.5 °F /  9.7 °C 45.5 °F /  7.5 °C 30.1in /  1019.6hPa WNW 2.9mph /  4.7km/h 6mph /  9.7km/h 86% 0in /  0.0mm 225 W/m2
11:42 49.6 °F /  9.8 °C 45.7 °F /  7.6 °C 30.1in /  1019.6hPa WNW 6.9mph /  11.1km/h 7mph /  11.3km/h 86% 0in /  0.0mm 188 W/m2
11:47 49.6 °F /  9.8 °C 45.7 °F /  7.6 °C 30.1in /  1019.6hPa Calm   9mph /  14.5km/h 86% 0in /  0.0mm 151 W/m2
11:52 49.6 °F /  9.8 °C 45.7 °F /  7.6 °C 30.1in /  1019.6hPa WSW 0.9mph /  1.4km/h 9mph /  14.5km/h 86% 0in /  0.0mm 239 W/m2
11:57 49.8 °F /  9.9 °C 45.9 °F /  7.7 °C 30.1in /  1019.6hPa WSW 0.9mph /  1.4km/h 7mph /  11.3km/h 86% 0in /  0.0mm 156 W/m2
12:02 49.8 °F /  9.9 °C 45.9 °F /  7.7 °C 30.1in /  1019.6hPa NW 2mph /  3.2km/h 4mph /  6.4km/h 86% 0in /  0.0mm 225 W/m2
12:07 50 °F /  10 °C 46 °F /  7.8 °C 30.1in /  1019.6hPa WNW 4mph /  6.4km/h 5mph /  8km/h 86% 0in /  0.0mm 120 W/m2
12:12 49.8 °F /  9.9 °C 45.9 °F /  7.7 °C 30.1in /  1019.6hPa WSW 2mph /  3.2km/h 6mph /  9.7km/h 86% 0in /  0.0mm 179 W/m2
12:17 49.6 °F /  9.8 °C 45.9 °F /  7.7 °C 30.1in /  1019.6hPa WSW 0.9mph /  1.4km/h 5mph /  8km/h 87% 0in /  0.0mm 127 W/m2
12:22 49.5 °F /  9.7 °C 46 °F /  7.8 °C 30.1in /  1019.6hPa SW 4.9mph /  7.9km/h 5mph /  8km/h 88% 0in /  0.0mm 188 W/m2
12:27 49.5 °F /  9.7 °C 46 °F /  7.8 °C 30.1in /  1019.6hPa North 4mph /  6.4km/h 8mph /  12.9km/h 88% 0in /  0.0mm 195 W/m2
12:32 49.5 °F /  9.7 °C 46 °F /  7.8 °C 30.1in /  1019.6hPa West 6mph /  9.7km/h 9mph /  14.5km/h 88% 0in /  0.0mm 250 W/m2
12:37 49.5 °F /  9.7 °C 46 °F /  7.8 °C 30.1in /  1019.6hPa WNW 8.9mph /  14.3km/h 10mph /  16.1km/h 88% 0in /  0.0mm 248 W/m2
12:42 49.5 °F /  9.7 °C 46.4 °F /  8 °C 30.1in /  1019.6hPa West 2mph /  3.2km/h 3mph /  4.8km/h 89% 0in /  0.0mm 200 W/m2
12:47 49.6 °F /  9.8 °C 46.6 °F /  8.1 °C 30.1in /  1019.6hPa NW 2mph /  3.2km/h 3mph /  4.8km/h 89% 0in /  0.0mm 199 W/m2
12:52 49.8 °F /  9.9 °C 46.4 °F /  8 °C 30.1in /  1019.6hPa NE 2.9mph /  4.7km/h 4mph /  6.4km/h 88% 0in /  0.0mm 272 W/m2
12:57 50.2 °F /  10.1 °C 46.8 °F /  8.2 °C 30.1in /  1019.6hPa NW 4mph /  6.4km/h 6mph /  9.7km/h 88% 0in /  0.0mm 267 W/m2
13:03 50.4 °F /  10.2 °C 46.9 °F /  8.3 °C 30.1in /  1019.6hPa NW 6.9mph /  11.1km/h 9mph /  14.5km/h 88% 0in /  0.0mm 107 W/m2
13:08 50.4 °F /  10.2 °C 46.4 °F /  8 °C 30.1in /  1019.6hPa West 2.9mph /  4.7km/h 11mph /  17.7km/h 86% 0in /  0.0mm 165 W/m2
13:13 50.4 °F /  10.2 °C 46.4 °F /  8 °C 30.1in /  1019.6hPa West 4mph /  6.4km/h 7mph /  11.3km/h 86% 0in /  0.0mm 158 W/m2
13:18 50.4 °F /  10.2 °C 46.4 °F /  8 °C 30.1in /  1019.6hPa West 6.9mph /  11.1km/h 11mph /  17.7km/h 86% 0in /  0.0mm 67 W/m2
13:23 50.2 °F /  10.1 °C 46.2 °F /  7.9 °C 30.1in /  1019.6hPa SW 2mph /  3.2km/h 9mph /  14.5km/h 86% 0.01in /  0.2mm 107 W/m2
13:28 49.8 °F /  9.9 °C 46.4 °F /  8 °C 30.1in /  1019.6hPa WSW 0.9mph /  1.4km/h 10mph /  16.1km/h 88% 0.01in /  0.2mm 221 W/m2
13:33 49.8 °F /  9.9 °C 46.8 °F /  8.2 °C 30.1in /  1019.6hPa ENE 0.9mph /  1.4km/h 4mph /  6.4km/h 89% 0.01in /  0.2mm 243 W/m2
13:38 49.8 °F /  9.9 °C 46.9 °F /  8.3 °C 30.1in /  1019.6hPa WNW 2.9mph /  4.7km/h 5mph /  8km/h 90% 0.01in /  0.2mm 169 W/m2
13:43 49.8 °F /  9.9 °C 46.8 °F /  8.2 °C 30.1in /  1019.6hPa SW 2mph /  3.2km/h 9mph /  14.5km/h 89% 0.01in /  0.2mm 146 W/m2
13:48 49.8 °F /  9.9 °C 46.8 °F /  8.2 °C 30.1in /  1019.6hPa West 2.9mph /  4.7km/h 6mph /  9.7km/h 89% 0.01in /  0.2mm 167 W/m2
13:53 49.8 °F /  9.9 °C 46.4 °F /  8 °C 30.1in /  1019.6hPa West 4mph /  6.4km/h 8mph /  12.9km/h 88% 0.01in /  0.2mm 188 W/m2
13:58 50 °F /  10 °C 46.6 °F /  8.1 °C 30.1in /  1019.6hPa WNW 0.9mph /  1.4km/h 7mph /  11.3km/h 88% 0.01in /  0.2mm 153 W/m2
14:03 50 °F /  10 °C 46.6 °F /  8.1 °C 30.1in /  1019.6hPa WNW 0.9mph /  1.4km/h 3mph /  4.8km/h 88% 0.01in /  0.2mm 128 W/m2
14:08 50.2 °F /  10.1 °C 46.4 °F /  8 °C 30.1in /  1019.6hPa West 0.9mph /  1.4km/h 9mph /  14.5km/h 87% 0.01in /  0.2mm 149 W/m2
14:13 50.2 °F /  10.1 °C 46.4 °F /  8 °C 30.1in /  1019.6hPa West 0.9mph /  1.4km/h 2mph /  3.2km/h 87% 0.01in /  0.2mm 144 W/m2
14:18 50.2 °F /  10.1 °C 46.2 °F /  7.9 °C 30.1in /  1019.6hPa NW 4mph /  6.4km/h 4mph /  6.4km/h 86% 0.01in /  0.2mm 146 W/m2
14:23 50.2 °F /  10.1 °C 46.2 °F /  7.9 °C 30.1in /  1019.6hPa WNW 0.9mph /  1.4km/h 8mph /  12.9km/h 86% 0in /  0.0mm 95 W/m2
14:28 50.2 °F /  10.1 °C 46.2 °F /  7.9 °C 30.1in /  1019.6hPa Calm   6mph /  9.7km/h 86% 0in /  0.0mm 77 W/m2
14:33 50.2 °F /  10.1 °C 46.2 °F /  7.9 °C 30.1in /  1019.6hPa WNW 2.9mph /  4.7km/h 4mph /  6.4km/h 86% 0in /  0.0mm 98 W/m2
14:38 50.2 °F /  10.1 °C 46.2 °F /  7.9 °C 30.1in /  1019.6hPa NE 2mph /  3.2km/h 4mph /  6.4km/h 86% 0in /  0.0mm 79 W/m2
14:43 50.2 °F /  10.1 °C 46.2 °F /  7.9 °C 30.1in /  1019.3hPa Calm   2mph /  3.2km/h 86% 0in /  0.0mm 134 W/m2
14:48 50.2 °F /  10.1 °C 45.9 °F /  7.7 °C 30.1in /  1019.3hPa Calm   7mph /  11.3km/h 85% 0in /  0.0mm 111 W/m2
14:53 50.2 °F /  10.1 °C 46.2 °F /  7.9 °C 30.1in /  1019.3hPa WNW 2.9mph /  4.7km/h 4mph /  6.4km/h 86% 0in /  0.0mm 158 W/m2
14:58 50.4 °F /  10.2 °C 46 °F /  7.8 °C 30.1in /  1019.3hPa NNW 2mph /  3.2km/h 3mph /  4.8km/h 85% 0in /  0.0mm 144 W/m2
15:03 50.4 °F /  10.2 °C 46 °F /  7.8 °C 30.1in /  1019.3hPa WSW 8.1mph /  13km/h 10mph /  16.1km/h 85% 0in /  0.0mm 153 W/m2
15:08 50.5 °F /  10.3 °C 45.9 °F /  7.7 °C 30.1in /  1019.3hPa WNW 0.9mph /  1.4km/h 2mph /  3.2km/h 84% 0in /  0.0mm 179 W/m2
15:13 50.5 °F /  10.3 °C 45.9 °F /  7.7 °C 30.1in /  1019.3hPa SSE 9mph /  14.5km/h 9mph /  14.5km/h 84% 0in /  0.0mm 148 W/m2
15:18 50.7 °F /  10.4 °C 46 °F /  7.8 °C 30.1in /  1019.3hPa WNW 2mph /  3.2km/h 9mph /  14.5km/h 84% 0in /  0.0mm 130 W/m2
15:23 50.7 °F /  10.4 °C 46 °F /  7.8 °C 30.1in /  1019.3hPa South 2mph /  3.2km/h 3mph /  4.8km/h 84% 0in /  0.0mm 139 W/m2
15:28 50.7 °F /  10.4 °C 46 °F /  7.8 °C 30.1in /  1019.3hPa Calm   9mph /  14.5km/h 84% 0in /  0.0mm 125 W/m2
15:33 50.7 °F /  10.4 °C 45.5 °F /  7.5 °C 30.1in /  1019.3hPa WSW 2.9mph /  4.7km/h 7mph /  11.3km/h 82% 0in /  0.0mm 100 W/m2
15:38 50.7 °F /  10.4 °C 45.5 °F /  7.5 °C 30.1in /  1019.3hPa West 2.9mph /  4.7km/h 4mph /  6.4km/h 82% 0in /  0.0mm 104 W/m2
15:43 50.9 °F /  10.5 °C 45.3 °F /  7.4 °C 30.1in /  1019.3hPa WSW 2.9mph /  4.7km/h 7mph /  11.3km/h 81% 0in /  0.0mm 104 W/m2
15:48 50.9 °F /  10.5 °C 45.3 °F /  7.4 °C 30.1in /  1019.3hPa NW 2mph /  3.2km/h 4mph /  6.4km/h 81% 0in /  0.0mm 104 W/m2
15:53 50.9 °F /  10.5 °C 45 °F /  7.2 °C 30.1in /  1019.3hPa NW 2mph /  3.2km/h 6mph /  9.7km/h 80% 0in /  0.0mm 86 W/m2
15:58 50.9 °F /  10.5 °C 45 °F /  7.2 °C 30.1in /  1019.3hPa Calm   3mph /  4.8km/h 80% 0in /  0.0mm 74 W/m2
16:03 50.9 °F /  10.5 °C 45 °F /  7.2 °C 30.1in /  1019.3hPa West 0.9mph /  1.4km/h 7mph /  11.3km/h 80% 0in /  0.0mm 83 W/m2
16:08 50.7 °F /  10.4 °C 44.8 °F /  7.1 °C 30.1in /  1019.3hPa WNW 0.9mph /  1.4km/h 2mph /  3.2km/h 80% 0in /  0.0mm 86 W/m2
16:13 50.7 °F /  10.4 °C 45.1 °F /  7.3 °C 30.1in /  1019.3hPa SW 0.9mph /  1.4km/h 6mph /  9.7km/h 81% 0in /  0.0mm 84 W/m2
16:18 50.7 °F /  10.4 °C 45.1 °F /  7.3 °C 30.1in /  1019.3hPa SW 0.9mph /  1.4km/h 1mph /  1.6km/h 81% 0in /  0.0mm 88 W/m2
16:23 50.7 °F /  10.4 °C 45.1 °F /  7.3 °C 30.1in /  1019.3hPa Calm   1mph /  1.6km/h 81% 0in /  0.0mm 74 W/m2
16:28 50.7 °F /  10.4 °C 44.8 °F /  7.1 °C 30.1in /  1019.3hPa NNW 2mph /  3.2km/h 4mph /  6.4km/h 80% 0in /  0.0mm 67 W/m2
16:33 50.7 °F /  10.4 °C 44.8 °F /  7.1 °C 30.1in /  1019.3hPa Calm   3mph /  4.8km/h 80% 0in /  0.0mm 70 W/m2
16:38 50.7 °F /  10.4 °C 44.8 °F /  7.1 °C 30.1in /  1019.3hPa NNE 2.9mph /  4.7km/h 4mph /  6.4km/h 80% 0in /  0.0mm 58 W/m2
16:43 50.7 °F /  10.4 °C 44.8 °F /  7.1 °C 30.1in /  1019.3hPa East 0.9mph /  1.4km/h 3mph /  4.8km/h 80% 0in /  0.0mm 62 W/m2
16:48 50.7 °F /  10.4 °C 44.8 °F /  7.1 °C 30.1in /  1019.3hPa North 0.9mph /  1.4km/h 2mph /  3.2km/h 80% 0in /  0.0mm 53 W/m2
16:53 50.7 °F /  10.4 °C 44.8 °F /  7.1 °C 30.1in /  1019.3hPa Calm   2mph /  3.2km/h 80% 0in /  0.0mm 47 W/m2
16:58 50.7 °F /  10.4 °C 44.8 °F /  7.1 °C 30.1in /  1019.3hPa NNW 2mph /  3.2km/h 3mph /  4.8km/h 80% 0in /  0.0mm 42 W/m2
17:03 50.5 °F /  10.3 °C 45 °F /  7.2 °C 30.1in /  1019.0hPa NNW 0.9mph /  1.4km/h 1mph /  1.6km/h 81% 0in /  0.0mm 37 W/m2
17:08 50.5 °F /  10.3 °C 45 °F /  7.2 °C 30.1in /  1019.0hPa Calm   2mph /  3.2km/h 81% 0in /  0.0mm 44 W/m2
17:13 50.5 °F /  10.3 °C 45 °F /  7.2 °C 30.1in /  1019.0hPa NNE 0.9mph /  1.4km/h 2mph /  3.2km/h 81% 0in /  0.0mm 39 W/m2
17:18 50.4 °F /  10.2 °C 44.8 °F /  7.1 °C 30.1in /  1019.0hPa NE 0.9mph /  1.4km/h 2mph /  3.2km/h 81% 0in /  0.0mm 33 W/m2
17:23 50.4 °F /  10.2 °C 44.8 °F /  7.1 °C 30.1in /  1019.0hPa Calm     81% 0in /  0.0mm 32 W/m2
17:28 50.4 °F /  10.2 °C 44.8 °F /  7.1 °C 30.1in /  1019.0hPa Calm     81% 0in /  0.0mm 19 W/m2
17:33 50.2 °F /  10.1 °C 44.6 °F /  7 °C 30.1in /  1019.0hPa NNE 0.9mph /  1.4km/h 2mph /  3.2km/h 81% 0in /  0.0mm 16 W/m2
17:38 50.2 °F /  10.1 °C 44.6 °F /  7 °C 30.1in /  1019.0hPa Calm     81% 0in /  0.0mm 11 W/m2
17:43 50 °F /  10 °C 44.8 °F /  7.1 °C 30.1in /  1019.0hPa Calm   2mph /  3.2km/h 82% 0in /  0.0mm 7 W/m2
17:48 49.8 °F /  9.9 °C 44.6 °F /  7 °C 30.1in /  1019.0hPa Calm     82% 0in /  0.0mm 5 W/m2
17:53 49.6 °F /  9.8 °C 44.4 °F /  6.9 °C 30.1in /  1019.0hPa Calm   2mph /  3.2km/h 82% 0in /  0.0mm 0 W/m2
17:58 49.5 °F /  9.7 °C 44.6 °F /  7 °C 30.1in /  1019.0hPa Calm     83% 0in /  0.0mm 0 W/m2
18:03 49.1 °F /  9.5 °C 44.4 °F /  6.9 °C 30.1in /  1019.0hPa Calm     84% 0in /  0.0mm 0 W/m2
18:08 48.9 °F /  9.4 °C 44.2 °F /  6.8 °C 30.1in /  1019.3hPa Calm     84% 0in /  0.0mm 0 W/m2
18:13 48.6 °F /  9.2 °C 43.9 °F /  6.6 °C 30.1in /  1019.3hPa Calm     84% 0in /  0.0mm 0 W/m2
18:18 48.6 °F /  9.2 °C 43.9 °F /  6.6 °C 30.1in /  1019.3hPa Calm     84% 0in /  0.0mm 0 W/m2
18:23 48.4 °F /  9.1 °C 44.1 °F /  6.7 °C 30.1in /  1019.3hPa ENE 0.9mph /  1.4km/h 1mph /  1.6km/h 85% 0in /  0.0mm 0 W/m2
18:28 48.2 °F /  9 °C 43.9 °F /  6.6 °C 30.1in /  1019.3hPa Calm   2mph /  3.2km/h 85% 0in /  0.0mm 0 W/m2
18:33 48 °F /  8.9 °C 43.7 °F /  6.5 °C 30.1in /  1019.3hPa Calm     85% 0in /  0.0mm 0 W/m2
18:38 47.8 °F /  8.8 °C 43.5 °F /  6.4 °C 30.1in /  1019.3hPa Calm   2mph /  3.2km/h 85% 0in /  0.0mm 0 W/m2
18:43 47.7 °F /  8.7 °C 43.7 °F /  6.5 °C 30.1in /  1019.3hPa Calm   1mph /  1.6km/h 86% 0in /  0.0mm 0 W/m2
18:48 47.5 °F /  8.6 °C 43.5 °F /  6.4 °C 30.1in /  1019.3hPa Calm   2mph /  3.2km/h 86% 0in /  0.0mm 0 W/m2
18:53 47.3 °F /  8.5 °C 43.3 °F /  6.3 °C 30.1in /  1019.3hPa Calm     86% 0in /  0.0mm 0 W/m2
18:58 47.1 °F /  8.4 °C 43.2 °F /  6.2 °C 30.1in /  1019.3hPa Calm     86% 0in /  0.0mm 0 W/m2
19:03 46.9 °F /  8.3 °C 43.3 °F /  6.3 °C 30.1in /  1019.3hPa Calm     87% 0in /  0.0mm 0 W/m2
19:08 46.8 °F /  8.2 °C 43.2 °F /  6.2 °C 30.1in /  1019.0hPa Calm     87% 0in /  0.0mm 0 W/m2
19:13 46.6 °F /  8.1 °C 43 °F /  6.1 °C 30.1in /  1019.0hPa Calm     87% 0in /  0.0mm 0 W/m2
19:18 46.2 °F /  7.9 °C 42.6 °F /  5.9 °C 30.1in /  1019.0hPa Calm     87% 0in /  0.0mm 0 W/m2
19:23 46 °F /  7.8 °C 42.6 °F /  5.9 °C 30.1in /  1019.0hPa Calm   1mph /  1.6km/h 88% 0in /  0.0mm 0 W/m2
19:28 45.9 °F /  7.7 °C 42.4 °F /  5.8 °C 30.1in /  1019.0hPa Calm     88% 0in /  0.0mm 0 W/m2
19:33 45.7 °F /  7.6 °C 42.3 °F /  5.7 °C 30.1in /  1019.0hPa Calm   1mph /  1.6km/h 88% 0in /  0.0mm 0 W/m2
19:38 45.5 °F /  7.5 °C 42.1 °F /  5.6 °C 30.1in /  1019.0hPa Calm     88% 0in /  0.0mm 0 W/m2
19:43 45.1 °F /  7.3 °C 41.7 °F /  5.4 °C 30.1in /  1019.0hPa Calm   1mph /  1.6km/h 88% 0in /  0.0mm 0 W/m2
19:48 45 °F /  7.2 °C 41.5 °F /  5.3 °C 30.1in /  1019.0hPa Calm     88% 0in /  0.0mm 0 W/m2
19:54 44.4 °F /  6.9 °C 41.2 °F /  5.1 °C 30.1in /  1019.0hPa Calm     88% 0in /  0.0mm 0 W/m2
19:59 44.2 °F /  6.8 °C 41 °F /  5 °C 30.1in /  1019.0hPa NE 0.9mph /  1.4km/h 1mph /  1.6km/h 88% 0in /  0.0mm 0 W/m2
20:04 43.9 °F /  6.6 °C 40.6 °F /  4.8 °C 30.1in /  1019.0hPa Calm     88% 0in /  0.0mm 0 W/m2
20:09 43.5 °F /  6.4 °C 40.5 °F /  4.7 °C 30.1in /  1019.0hPa Calm     89% 0in /  0.0mm 0 W/m2
20:14 43.2 °F /  6.2 °C 40.1 °F /  4.5 °C 30.1in /  1019.0hPa Calm   1mph /  1.6km/h 89% 0in /  0.0mm 0 W/m2
20:19 43 °F /  6.1 °C 39.9 °F /  4.4 °C 30.1in /  1019.0hPa Calm   1mph /  1.6km/h 89% 0in /  0.0mm 0 W/m2
20:24 42.6 °F /  5.9 °C 39.6 °F /  4.2 °C 30.1in /  1019.0hPa Calm   2mph /  3.2km/h 89% 0in /  0.0mm 0 W/m2
20:29 42.4 °F /  5.8 °C 39.7 °F /  4.3 °C 30.1in /  1019.0hPa Calm     90% 0in /  0.0mm 0 W/m2
20:34 42.3 °F /  5.7 °C 39.6 °F /  4.2 °C 30.1in /  1018.6hPa Calm   2mph /  3.2km/h 90% 0in /  0.0mm 0 W/m2
20:39 42.1 °F /  5.6 °C 39.4 °F /  4.1 °C 30.1in /  1018.6hPa Calm     90% 0in /  0.0mm 0 W/m2
Juneau County Weather
Compliments of Weather Underground - 4 mb